Tempe, Arizona
Current Conditions -  °F | °C
As of 10:51 PM on Sunday 25 Jan 2015 (Local Time) from KPHX Reporting Station
Broken Clouds Broken Clouds  
Wind Chill: 57°   Ceiling: 25000
Heat Index: 57°   Visibility: 10mi
Dew Point: 30°   Wind: 3mph
Humidity: 36%   Direction: 80°E
Pressure: 30.09"   Gusts: NA
Location:  33.43°N, 111.93°W
Report Text: KPHX 260551Z 08003KT 10SM BKN250 14/M01 A3009 RMK AO2 SLP180 T01391011 10233 20128 53008
Loading
Personal Weather Stations






























Interactive Weather Map New forecast layout! Learn more

10-Day Weather Forecast

Advertisements
Track Severe Weather on mobile